Ellis Field

About
Name: Ellis Field
Identifier:  MYU/PAMY
Local Time:  18. Aug 05:52 AKDT
Location
Flights per Day
2 flights
Distance: 107km (66mi)
Punctuality
93% (0 flights per day delayed)
Delay Average: 12 minutes
Current Weather
 13 C (Humidity: 87%)
  11kt (20km/h / 12mph) from 50°
  16km (10 mi.)
 
 METAR PAMY 181256Z AUTO 05011KT 10SM CLR 13/11 A3044 RMK AO2 SLP308 T01280111

Current Flights

Departures
Number Departure To Airline
Arrivals
Number Arrival From Airline

Current Delays

Departures
N/A
Arrivals
N/A

Destinations

Top Destinations
Airport Flights
per week
Seats
per week
  Bethel (BET) 0 - 0 0

Airlines & Planes

Top Airlines
Airline Flights
per Day
Seats
per Day
Ryan Air 0 -
Top Plane Types
Model Flights Seats
Construcciones C-212-CC 0.0/day - 0